sensor_id;sensor_type;location;lat;lon;timestamp;temperature;humidity
17495;DHT22;8864;51.970;4.614;2024-03-22T00:02:07;18.50;80.00
17495;DHT22;8864;51.970;4.614;2024-03-22T00:04:35;18.50;80.10
17495;DHT22;8864;51.970;4.614;2024-03-22T00:07:00;18.50;80.10
17495;DHT22;8864;51.970;4.614;2024-03-22T00:09:28;18.50;80.10
17495;DHT22;8864;51.970;4.614;2024-03-22T00:11:55;18.50;80.10
17495;DHT22;8864;51.970;4.614;2024-03-22T00:14:22;18.50;80.30
17495;DHT22;8864;51.970;4.614;2024-03-22T00:16:48;18.50;80.20
17495;DHT22;8864;51.970;4.614;2024-03-22T00:19:15;18.50;80.30
17495;DHT22;8864;51.970;4.614;2024-03-22T00:21:41;18.50;80.30
17495;DHT22;8864;51.970;4.614;2024-03-22T00:24:08;18.50;80.30
17495;DHT22;8864;51.970;4.614;2024-03-22T00:26:34;18.50;80.30
17495;DHT22;8864;51.970;4.614;2024-03-22T00:29:02;18.50;80.30
17495;DHT22;8864;51.970;4.614;2024-03-22T00:31:28;18.50;80.40
17495;DHT22;8864;51.970;4.614;2024-03-22T00:33:55;18.50;80.40
17495;DHT22;8864;51.970;4.614;2024-03-22T00:36:21;18.50;80.40
17495;DHT22;8864;51.970;4.614;2024-03-22T00:38:48;18.50;80.40
17495;DHT22;8864;51.970;4.614;2024-03-22T00:41:14;18.50;80.40
17495;DHT22;8864;51.970;4.614;2024-03-22T00:43:41;18.50;80.40
17495;DHT22;8864;51.970;4.614;2024-03-22T00:46:09;18.50;80.40
17495;DHT22;8864;51.970;4.614;2024-03-22T00:48:36;18.50;80.50
17495;DHT22;8864;51.970;4.614;2024-03-22T00:51:02;18.50;80.50
17495;DHT22;8864;51.970;4.614;2024-03-22T00:53:29;18.50;80.40
17495;DHT22;8864;51.970;4.614;2024-03-22T00:55:55;18.50;80.50
17495;DHT22;8864;51.970;4.614;2024-03-22T00:58:25;18.50;80.50
17495;DHT22;8864;51.970;4.614;2024-03-22T01:00:51;18.50;80.50
17495;DHT22;8864;51.970;4.614;2024-03-22T01:03:20;18.50;80.50
17495;DHT22;8864;51.970;4.614;2024-03-22T01:05:46;18.40;81.20
17495;DHT22;8864;51.970;4.614;2024-03-22T01:08:13;18.50;80.60
17495;DHT22;8864;51.970;4.614;2024-03-22T01:10:39;18.40;80.50
17495;DHT22;8864;51.970;4.614;2024-03-22T01:13:06;18.50;80.60
17495;DHT22;8864;51.970;4.614;2024-03-22T01:15:32;18.40;80.60
17495;DHT22;8864;51.970;4.614;2024-03-22T01:17:59;18.40;80.60
17495;DHT22;8864;51.970;4.614;2024-03-22T01:20:27;18.40;80.60
17495;DHT22;8864;51.970;4.614;2024-03-22T01:22:54;18.40;80.60
17495;DHT22;8864;51.970;4.614;2024-03-22T01:25:20;18.40;80.60
17495;DHT22;8864;51.970;4.614;2024-03-22T01:27:46;18.40;80.60
17495;DHT22;8864;51.970;4.614;2024-03-22T01:30:12;18.40;80.60
17495;DHT22;8864;51.970;4.614;2024-03-22T01:32:40;18.40;80.60
17495;DHT22;8864;51.970;4.614;2024-03-22T01:35:06;18.40;80.60
17495;DHT22;8864;51.970;4.614;2024-03-22T01:37:34;18.40;80.60
17495;DHT22;8864;51.970;4.614;2024-03-22T01:40:00;18.40;80.60
17495;DHT22;8864;51.970;4.614;2024-03-22T01:42:28;18.40;80.70
17495;DHT22;8864;51.970;4.614;2024-03-22T01:44:54;18.40;80.70
17495;DHT22;8864;51.970;4.614;2024-03-22T01:47:21;18.40;80.70
17495;DHT22;8864;51.970;4.614;2024-03-22T01:49:47;18.40;80.70
17495;DHT22;8864;51.970;4.614;2024-03-22T01:52:14;18.40;80.70
17495;DHT22;8864;51.970;4.614;2024-03-22T01:54:42;18.40;81.50
17495;DHT22;8864;51.970;4.614;2024-03-22T01:57:09;18.40;80.70
17495;DHT22;8864;51.970;4.614;2024-03-22T01:59:35;18.40;80.70
17495;DHT22;8864;51.970;4.614;2024-03-22T02:02:02;18.40;80.70
17495;DHT22;8864;51.970;4.614;2024-03-22T02:04:28;18.40;80.70
17495;DHT22;8864;51.970;4.614;2024-03-22T02:06:55;18.40;80.70
17495;DHT22;8864;51.970;4.614;2024-03-22T02:09:21;18.40;80.70
17495;DHT22;8864;51.970;4.614;2024-03-22T02:11:50;18.40;80.80
17495;DHT22;8864;51.970;4.614;2024-03-22T02:14:16;18.40;80.90
17495;DHT22;8864;51.970;4.614;2024-03-22T02:16:43;18.40;80.80
17495;DHT22;8864;51.970;4.614;2024-03-22T02:19:09;18.40;80.80
17495;DHT22;8864;51.970;4.614;2024-03-22T02:21:36;18.40;80.90
17495;DHT22;8864;51.970;4.614;2024-03-22T02:24:04;18.40;80.90
17495;DHT22;8864;51.970;4.614;2024-03-22T02:26:31;18.40;80.80
17495;DHT22;8864;51.970;4.614;2024-03-22T02:28:57;18.40;80.90
17495;DHT22;8864;51.970;4.614;2024-03-22T02:31:23;18.40;80.90
17495;DHT22;8864;51.970;4.614;2024-03-22T02:33:51;18.40;80.90
17495;DHT22;8864;51.970;4.614;2024-03-22T02:36:17;18.40;80.90
17495;DHT22;8864;51.970;4.614;2024-03-22T02:38:44;18.40;80.90
17495;DHT22;8864;51.970;4.614;2024-03-22T02:41:11;18.40;80.90
17495;DHT22;8864;51.970;4.614;2024-03-22T02:43:38;18.40;80.90
17495;DHT22;8864;51.970;4.614;2024-03-22T02:46:04;18.40;81.00
17495;DHT22;8864;51.970;4.614;2024-03-22T02:48:31;18.40;80.90
17495;DHT22;8864;51.970;4.614;2024-03-22T02:50:57;18.40;80.90
17495;DHT22;8864;51.970;4.614;2024-03-22T02:53:24;18.40;80.90
17495;DHT22;8864;51.970;4.614;2024-03-22T02:55:50;18.40;80.90
17495;DHT22;8864;51.970;4.614;2024-03-22T02:58:20;18.30;80.90
17495;DHT22;8864;51.970;4.614;2024-03-22T03:00:46;18.30;80.90
17495;DHT22;8864;51.970;4.614;2024-03-22T03:03:13;18.30;80.90
17495;DHT22;8864;51.970;4.614;2024-03-22T03:05:39;18.30;80.90
17495;DHT22;8864;51.970;4.614;2024-03-22T03:08:07;18.30;81.00
17495;DHT22;8864;51.970;4.614;2024-03-22T03:10:33;18.30;81.00
17495;DHT22;8864;51.970;4.614;2024-03-22T03:13:00;18.30;81.00
17495;DHT22;8864;51.970;4.614;2024-03-22T03:15:27;18.30;81.00
17495;DHT22;8864;51.970;4.614;2024-03-22T03:17:54;18.30;81.00
17495;DHT22;8864;51.970;4.614;2024-03-22T03:20:20;18.30;81.00
17495;DHT22;8864;51.970;4.614;2024-03-22T03:22:47;18.30;81.10
17495;DHT22;8864;51.970;4.614;2024-03-22T03:25:13;18.30;81.00
17495;DHT22;8864;51.970;4.614;2024-03-22T03:27:40;18.30;81.00
17495;DHT22;8864;51.970;4.614;2024-03-22T03:30:09;18.30;81.00
17495;DHT22;8864;51.970;4.614;2024-03-22T03:32:37;18.30;81.00
17495;DHT22;8864;51.970;4.614;2024-03-22T03:35:03;18.30;81.00
17495;DHT22;8864;51.970;4.614;2024-03-22T03:37:30;18.30;81.00
17495;DHT22;8864;51.970;4.614;2024-03-22T03:39:56;18.30;81.00
17495;DHT22;8864;51.970;4.614;2024-03-22T03:42:24;18.30;81.10
17495;DHT22;8864;51.970;4.614;2024-03-22T03:44:50;18.30;81.10
17495;DHT22;8864;51.970;4.614;2024-03-22T03:47:17;18.30;81.00
17495;DHT22;8864;51.970;4.614;2024-03-22T03:49:45;18.30;81.10
17495;DHT22;8864;51.970;4.614;2024-03-22T03:52:12;18.30;81.10
17495;DHT22;8864;51.970;4.614;2024-03-22T03:54:38;18.30;81.00
17495;DHT22;8864;51.970;4.614;2024-03-22T03:57:05;18.20;81.00
17495;DHT22;8864;51.970;4.614;2024-03-22T03:59:31;18.20;81.00
17495;DHT22;8864;51.970;4.614;2024-03-22T04:01:58;18.20;81.00
17495;DHT22;8864;51.970;4.614;2024-03-22T04:04:23;18.20;81.00
17495;DHT22;8864;51.970;4.614;2024-03-22T04:06:52;18.30;81.10
17495;DHT22;8864;51.970;4.614;2024-03-22T04:09:17;18.20;81.00
17495;DHT22;8864;51.970;4.614;2024-03-22T04:11:45;18.20;81.00
17495;DHT22;8864;51.970;4.614;2024-03-22T04:14:10;18.30;81.00
17495;DHT22;8864;51.970;4.614;2024-03-22T04:16:37;18.20;81.00
17495;DHT22;8864;51.970;4.614;2024-03-22T04:19:03;18.20;81.00
17495;DHT22;8864;51.970;4.614;2024-03-22T04:21:30;18.30;81.00
17495;DHT22;8864;51.970;4.614;2024-03-22T04:23:57;18.20;81.10
17495;DHT22;8864;51.970;4.614;2024-03-22T04:26:24;18.20;81.00
17495;DHT22;8864;51.970;4.614;2024-03-22T04:28:50;18.20;81.00
17495;DHT22;8864;51.970;4.614;2024-03-22T04:31:17;18.20;81.00
17495;DHT22;8864;51.970;4.614;2024-03-22T04:33:43;18.20;81.00
17495;DHT22;8864;51.970;4.614;2024-03-22T04:36:10;18.20;81.80
17495;DHT22;8864;51.970;4.614;2024-03-22T04:38:36;18.20;81.00
17495;DHT22;8864;51.970;4.614;2024-03-22T04:41:04;18.20;81.00
17495;DHT22;8864;51.970;4.614;2024-03-22T04:43:31;18.20;81.10
17495;DHT22;8864;51.970;4.614;2024-03-22T04:45:58;18.20;81.10
17495;DHT22;8864;51.970;4.614;2024-03-22T04:48:24;18.20;81.10
17495;DHT22;8864;51.970;4.614;2024-03-22T04:50:52;18.20;81.10
17495;DHT22;8864;51.970;4.614;2024-03-22T04:53:20;18.20;81.20
17495;DHT22;8864;51.970;4.614;2024-03-22T04:55:46;18.20;81.20
17495;DHT22;8864;51.970;4.614;2024-03-22T04:58:16;18.20;81.20
17495;DHT22;8864;51.970;4.614;2024-03-22T05:00:44;18.20;81.20
17495;DHT22;8864;51.970;4.614;2024-03-22T05:03:10;18.20;81.20
17495;DHT22;8864;51.970;4.614;2024-03-22T05:05:38;18.10;81.20
17495;DHT22;8864;51.970;4.614;2024-03-22T05:08:05;18.20;81.20
17495;DHT22;8864;51.970;4.614;2024-03-22T05:10:32;18.20;81.20
17495;DHT22;8864;51.970;4.614;2024-03-22T05:12:58;18.20;81.20
17495;DHT22;8864;51.970;4.614;2024-03-22T05:15:27;18.20;81.30
17495;DHT22;8864;51.970;4.614;2024-03-22T05:17:54;18.10;81.20
17495;DHT22;8864;51.970;4.614;2024-03-22T05:20:21;18.10;82.00
17495;DHT22;8864;51.970;4.614;2024-03-22T05:22:47;18.20;81.20
17495;DHT22;8864;51.970;4.614;2024-03-22T05:25:14;18.10;81.20
17495;DHT22;8864;51.970;4.614;2024-03-22T05:27:41;18.10;81.20
17495;DHT22;8864;51.970;4.614;2024-03-22T05:30:09;18.10;81.10
17495;DHT22;8864;51.970;4.614;2024-03-22T05:32:37;18.10;81.10
17495;DHT22;8864;51.970;4.614;2024-03-22T05:35:04;18.10;81.20
17495;DHT22;8864;51.970;4.614;2024-03-22T05:37:31;18.20;81.20
17495;DHT22;8864;51.970;4.614;2024-03-22T05:39:58;18.20;81.20
17495;DHT22;8864;51.970;4.614;2024-03-22T05:42:24;18.10;81.20
17495;DHT22;8864;51.970;4.614;2024-03-22T05:44:51;18.10;81.20
17495;DHT22;8864;51.970;4.614;2024-03-22T05:47:18;18.10;81.20
17495;DHT22;8864;51.970;4.614;2024-03-22T05:49:47;18.20;81.20
17495;DHT22;8864;51.970;4.614;2024-03-22T05:52:14;18.10;81.20
17495;DHT22;8864;51.970;4.614;2024-03-22T05:54:40;18.20;81.20
17495;DHT22;8864;51.970;4.614;2024-03-22T05:57:07;18.20;81.20
17495;DHT22;8864;51.970;4.614;2024-03-22T05:59:33;18.10;81.20
17495;DHT22;8864;51.970;4.614;2024-03-22T06:02:00;18.10;81.20
17495;DHT22;8864;51.970;4.614;2024-03-22T06:04:26;18.10;81.10
17495;DHT22;8864;51.970;4.614;2024-03-22T06:06:54;18.10;81.20
17495;DHT22;8864;51.970;4.614;2024-03-22T06:09:20;18.10;81.20
17495;DHT22;8864;51.970;4.614;2024-03-22T06:12:00;18.10;81.20
17495;DHT22;8864;51.970;4.614;2024-03-22T06:14:26;18.10;81.10
17495;DHT22;8864;51.970;4.614;2024-03-22T06:16:52;18.10;81.10
17495;DHT22;8864;51.970;4.614;2024-03-22T06:19:18;18.10;81.00
17495;DHT22;8864;51.970;4.614;2024-03-22T06:21:46;18.10;81.00
17495;DHT22;8864;51.970;4.614;2024-03-22T06:24:13;18.10;81.00
17495;DHT22;8864;51.970;4.614;2024-03-22T06:26:40;18.10;81.00
17495;DHT22;8864;51.970;4.614;2024-03-22T06:29:06;18.10;80.90
17495;DHT22;8864;51.970;4.614;2024-03-22T06:31:33;18.10;80.90
17495;DHT22;8864;51.970;4.614;2024-03-22T06:33:59;18.10;80.90
17495;DHT22;8864;51.970;4.614;2024-03-22T06:36:28;18.10;81.50
17495;DHT22;8864;51.970;4.614;2024-03-22T06:38:54;18.10;81.40
17495;DHT22;8864;51.970;4.614;2024-03-22T06:41:22;18.10;81.40
17495;DHT22;8864;51.970;4.614;2024-03-22T06:43:49;18.10;81.40
17495;DHT22;8864;51.970;4.614;2024-03-22T06:46:16;18.10;81.50
17495;DHT22;8864;51.970;4.614;2024-03-22T06:48:42;18.10;81.50
17495;DHT22;8864;51.970;4.614;2024-03-22T06:51:09;18.10;81.60
17495;DHT22;8864;51.970;4.614;2024-03-22T06:53:35;18.10;81.60
17495;DHT22;8864;51.970;4.614;2024-03-22T06:56:02;18.10;81.60
17495;DHT22;8864;51.970;4.614;2024-03-22T06:58:30;18.10;81.60
17495;DHT22;8864;51.970;4.614;2024-03-22T07:00:57;18.10;81.70
17495;DHT22;8864;51.970;4.614;2024-03-22T07:03:22;18.10;81.60
17495;DHT22;8864;51.970;4.614;2024-03-22T07:05:49;18.10;81.60
17495;DHT22;8864;51.970;4.614;2024-03-22T07:08:15;18.10;81.60
17495;DHT22;8864;51.970;4.614;2024-03-22T07:10:42;18.10;81.60
17495;DHT22;8864;51.970;4.614;2024-03-22T07:13:10;18.10;81.60
17495;DHT22;8864;51.970;4.614;2024-03-22T07:15:38;18.10;81.60
17495;DHT22;8864;51.970;4.614;2024-03-22T07:18:05;18.10;81.60
17495;DHT22;8864;51.970;4.614;2024-03-22T07:20:31;18.10;81.60
17495;DHT22;8864;51.970;4.614;2024-03-22T07:22:58;18.10;81.60
17495;DHT22;8864;51.970;4.614;2024-03-22T07:25:24;18.10;81.60
17495;DHT22;8864;51.970;4.614;2024-03-22T07:27:51;18.10;81.60
17495;DHT22;8864;51.970;4.614;2024-03-22T07:30:17;18.10;81.60
17495;DHT22;8864;51.970;4.614;2024-03-22T07:32:47;18.10;81.60
17495;DHT22;8864;51.970;4.614;2024-03-22T07:35:13;18.10;81.70
17495;DHT22;8864;51.970;4.614;2024-03-22T07:37:40;18.10;81.60
17495;DHT22;8864;51.970;4.614;2024-03-22T07:40:07;18.10;81.60
17495;DHT22;8864;51.970;4.614;2024-03-22T07:42:34;18.10;81.60
17495;DHT22;8864;51.970;4.614;2024-03-22T07:45:00;18.10;81.60
17495;DHT22;8864;51.970;4.614;2024-03-22T07:47:27;18.10;81.70
17495;DHT22;8864;51.970;4.614;2024-03-22T07:49:54;18.10;81.70
17495;DHT22;8864;51.970;4.614;2024-03-22T07:52:21;18.10;81.60
17495;DHT22;8864;51.970;4.614;2024-03-22T07:54:47;18.10;81.60
17495;DHT22;8864;51.970;4.614;2024-03-22T07:57:13;18.10;81.60
17495;DHT22;8864;51.970;4.614;2024-03-22T07:59:39;18.10;81.60
17495;DHT22;8864;51.970;4.614;2024-03-22T08:02:09;18.10;81.70
17495;DHT22;8864;51.970;4.614;2024-03-22T08:04:35;18.10;81.70
17495;DHT22;8864;51.970;4.614;2024-03-22T08:07:04;18.10;81.80
17495;DHT22;8864;51.970;4.614;2024-03-22T08:09:30;18.10;81.80
17495;DHT22;8864;51.970;4.614;2024-03-22T08:11:57;18.10;81.80
17495;DHT22;8864;51.970;4.614;2024-03-22T08:14:23;18.10;81.80
17495;DHT22;8864;51.970;4.614;2024-03-22T08:16:50;18.10;81.80
17495;DHT22;8864;51.970;4.614;2024-03-22T08:19:15;18.10;81.80
17495;DHT22;8864;51.970;4.614;2024-03-22T08:21:42;18.10;81.80
17495;DHT22;8864;51.970;4.614;2024-03-22T08:24:10;18.10;81.80
17495;DHT22;8864;51.970;4.614;2024-03-22T08:26:36;18.10;81.80
17495;DHT22;8864;51.970;4.614;2024-03-22T08:29:02;18.10;81.80
17495;DHT22;8864;51.970;4.614;2024-03-22T08:31:29;18.10;81.80
17495;DHT22;8864;51.970;4.614;2024-03-22T08:33:56;18.10;81.80
17495;DHT22;8864;51.970;4.614;2024-03-22T08:36:23;18.00;81.80
17495;DHT22;8864;51.970;4.614;2024-03-22T08:38:49;18.00;81.80
17495;DHT22;8864;51.970;4.614;2024-03-22T08:41:17;18.00;81.80
17495;DHT22;8864;51.970;4.614;2024-03-22T08:43:43;18.00;81.80
17495;DHT22;8864;51.970;4.614;2024-03-22T08:46:11;18.00;81.80
17495;DHT22;8864;51.970;4.614;2024-03-22T08:48:37;18.10;81.80
17495;DHT22;8864;51.970;4.614;2024-03-22T08:51:04;18.10;81.80
17495;DHT22;8864;51.970;4.614;2024-03-22T08:53:30;18.10;81.80
17495;DHT22;8864;51.970;4.614;2024-03-22T08:55:57;18.10;81.80
17495;DHT22;8864;51.970;4.614;2024-03-22T08:58:26;18.00;81.80
17495;DHT22;8864;51.970;4.614;2024-03-22T09:00:53;18.10;81.80
17495;DHT22;8864;51.970;4.614;2024-03-22T09:03:20;18.10;81.80
17495;DHT22;8864;51.970;4.614;2024-03-22T09:05:47;18.10;81.80
17495;DHT22;8864;51.970;4.614;2024-03-22T09:08:13;18.00;81.80
17495;DHT22;8864;51.970;4.614;2024-03-22T09:10:40;18.00;81.80
17495;DHT22;8864;51.970;4.614;2024-03-22T09:13:05;18.10;81.90
17495;DHT22;8864;51.970;4.614;2024-03-22T09:15:34;18.10;81.90
17495;DHT22;8864;51.970;4.614;2024-03-22T09:18:00;18.10;81.90
17495;DHT22;8864;51.970;4.614;2024-03-22T09:20:27;18.10;82.00
17495;DHT22;8864;51.970;4.614;2024-03-22T09:22:53;18.10;81.90
17495;DHT22;8864;51.970;4.614;2024-03-22T09:25:20;18.00;81.80
17495;DHT22;8864;51.970;4.614;2024-03-22T09:27:46;18.10;82.00
17495;DHT22;8864;51.970;4.614;2024-03-22T09:30:13;18.10;81.90
17495;DHT22;8864;51.970;4.614;2024-03-22T09:32:41;18.10;81.90
17495;DHT22;8864;51.970;4.614;2024-03-22T09:35:09;18.10;81.80
17495;DHT22;8864;51.970;4.614;2024-03-22T09:37:37;18.10;81.80
17495;DHT22;8864;51.970;4.614;2024-03-22T09:40:05;18.10;81.90
17495;DHT22;8864;51.970;4.614;2024-03-22T09:42:33;18.10;81.80
17495;DHT22;8864;51.970;4.614;2024-03-22T09:45:00;18.10;81.90
17495;DHT22;8864;51.970;4.614;2024-03-22T09:47:27;18.10;81.80
17495;DHT22;8864;51.970;4.614;2024-03-22T09:49:56;18.10;81.80
17495;DHT22;8864;51.970;4.614;2024-03-22T09:52:22;18.10;81.90
17495;DHT22;8864;51.970;4.614;2024-03-22T09:54:50;18.00;81.80
17495;DHT22;8864;51.970;4.614;2024-03-22T09:57:18;18.00;81.80
17495;DHT22;8864;51.970;4.614;2024-03-22T09:59:45;18.00;81.80
17495;DHT22;8864;51.970;4.614;2024-03-22T10:02:12;18.10;81.90
17495;DHT22;8864;51.970;4.614;2024-03-22T10:04:40;18.10;81.90
17495;DHT22;8864;51.970;4.614;2024-03-22T10:07:08;18.10;81.90
17495;DHT22;8864;51.970;4.614;2024-03-22T10:09:36;18.10;81.90
17495;DHT22;8864;51.970;4.614;2024-03-22T10:12:02;18.10;81.90
17495;DHT22;8864;51.970;4.614;2024-03-22T10:14:30;18.10;81.90
17495;DHT22;8864;51.970;4.614;2024-03-22T10:16:57;18.10;82.00
17495;DHT22;8864;51.970;4.614;2024-03-22T10:19:24;18.10;82.00
17495;DHT22;8864;51.970;4.614;2024-03-22T10:22:00;18.10;82.00
17495;DHT22;8864;51.970;4.614;2024-03-22T10:24:28;18.10;82.00
17495;DHT22;8864;51.970;4.614;2024-03-22T10:26:55;18.10;82.00
17495;DHT22;8864;51.970;4.614;2024-03-22T10:29:22;18.10;82.00
17495;DHT22;8864;51.970;4.614;2024-03-22T10:31:49;18.10;82.00
17495;DHT22;8864;51.970;4.614;2024-03-22T10:34:16;18.10;82.00
17495;DHT22;8864;51.970;4.614;2024-03-22T10:36:44;18.10;82.00
17495;DHT22;8864;51.970;4.614;2024-03-22T10:39:13;18.10;82.00
17495;DHT22;8864;51.970;4.614;2024-03-22T10:41:42;18.10;82.00
17495;DHT22;8864;51.970;4.614;2024-03-22T10:44:09;18.10;82.00
17495;DHT22;8864;51.970;4.614;2024-03-22T10:46:36;18.10;82.70
17495;DHT22;8864;51.970;4.614;2024-03-22T10:49:03;18.10;82.00
17495;DHT22;8864;51.970;4.614;2024-03-22T10:51:33;18.10;82.00
17495;DHT22;8864;51.970;4.614;2024-03-22T10:54:01;18.10;82.00
17495;DHT22;8864;51.970;4.614;2024-03-22T10:56:28;18.10;82.00
17495;DHT22;8864;51.970;4.614;2024-03-22T10:58:57;18.10;82.10
17495;DHT22;8864;51.970;4.614;2024-03-22T11:01:31;18.10;82.10
17495;DHT22;8864;51.970;4.614;2024-03-22T11:04:05;18.10;82.10
17495;DHT22;8864;51.970;4.614;2024-03-22T11:06:32;18.10;82.10
17495;DHT22;8864;51.970;4.614;2024-03-22T11:09:00;18.10;82.10
17495;DHT22;8864;51.970;4.614;2024-03-22T11:11:28;18.10;82.10
17495;DHT22;8864;51.970;4.614;2024-03-22T11:13:58;18.10;82.10
17495;DHT22;8864;51.970;4.614;2024-03-22T11:16:24;18.10;82.10
17495;DHT22;8864;51.970;4.614;2024-03-22T11:18:51;18.10;82.10
17495;DHT22;8864;51.970;4.614;2024-03-22T11:21:17;18.10;82.10
17495;DHT22;8864;51.970;4.614;2024-03-22T11:23:45;18.10;82.10
17495;DHT22;8864;51.970;4.614;2024-03-22T11:26:11;18.10;82.10
17495;DHT22;8864;51.970;4.614;2024-03-22T11:28:38;18.10;82.00
17495;DHT22;8864;51.970;4.614;2024-03-22T11:31:05;18.10;82.10
17495;DHT22;8864;51.970;4.614;2024-03-22T11:33:32;18.10;82.10
17495;DHT22;8864;51.970;4.614;2024-03-22T11:35:58;18.10;82.10
17495;DHT22;8864;51.970;4.614;2024-03-22T11:38:26;18.10;82.10
17495;DHT22;8864;51.970;4.614;2024-03-22T11:40:53;18.20;82.10
17495;DHT22;8864;51.970;4.614;2024-03-22T11:43:20;18.20;82.10
17495;DHT22;8864;51.970;4.614;2024-03-22T11:45:46;18.20;82.10
17495;DHT22;8864;51.970;4.614;2024-03-22T11:48:15;18.20;82.10
17495;DHT22;8864;51.970;4.614;2024-03-22T11:50:42;18.20;82.10
17495;DHT22;8864;51.970;4.614;2024-03-22T11:53:08;18.20;82.10
17495;DHT22;8864;51.970;4.614;2024-03-22T11:55:36;18.20;82.10
17495;DHT22;8864;51.970;4.614;2024-03-22T11:58:03;18.20;82.10
17495;DHT22;8864;51.970;4.614;2024-03-22T12:00:29;18.20;82.20
17495;DHT22;8864;51.970;4.614;2024-03-22T12:02:56;18.20;82.20
17495;DHT22;8864;51.970;4.614;2024-03-22T12:05:24;18.20;82.20
17495;DHT22;8864;51.970;4.614;2024-03-22T12:07:52;18.20;82.20
17495;DHT22;8864;51.970;4.614;2024-03-22T12:10:18;18.20;82.20
17495;DHT22;8864;51.970;4.614;2024-03-22T12:12:45;18.20;82.20
17495;DHT22;8864;51.970;4.614;2024-03-22T12:15:11;18.20;82.30
17495;DHT22;8864;51.970;4.614;2024-03-22T12:17:37;18.20;82.30
17495;DHT22;8864;51.970;4.614;2024-03-22T12:20:06;18.20;82.20
17495;DHT22;8864;51.970;4.614;2024-03-22T12:22:35;18.20;82.30
17495;DHT22;8864;51.970;4.614;2024-03-22T12:25:01;18.20;82.30
17495;DHT22;8864;51.970;4.614;2024-03-22T12:27:30;18.20;82.20
17495;DHT22;8864;51.970;4.614;2024-03-22T12:29:55;18.20;82.20
17495;DHT22;8864;51.970;4.614;2024-03-22T12:32:23;18.20;82.20
17495;DHT22;8864;51.970;4.614;2024-03-22T12:34:48;18.20;82.20
17495;DHT22;8864;51.970;4.614;2024-03-22T12:37:17;18.20;82.20
17495;DHT22;8864;51.970;4.614;2024-03-22T12:39:44;18.20;82.30
17495;DHT22;8864;51.970;4.614;2024-03-22T12:42:12;18.20;82.30
17495;DHT22;8864;51.970;4.614;2024-03-22T12:44:38;18.20;82.30
17495;DHT22;8864;51.970;4.614;2024-03-22T12:47:06;18.20;82.30
17495;DHT22;8864;51.970;4.614;2024-03-22T12:49:32;18.20;82.20
17495;DHT22;8864;51.970;4.614;2024-03-22T12:51:59;18.20;82.30
17495;DHT22;8864;51.970;4.614;2024-03-22T12:54:25;18.20;82.30
17495;DHT22;8864;51.970;4.614;2024-03-22T12:56:53;18.20;82.20
17495;DHT22;8864;51.970;4.614;2024-03-22T12:59:19;18.20;82.30
17495;DHT22;8864;51.970;4.614;2024-03-22T13:01:46;18.20;82.30
17495;DHT22;8864;51.970;4.614;2024-03-22T13:04:12;18.20;82.40
17495;DHT22;8864;51.970;4.614;2024-03-22T13:06:40;18.20;82.30
17495;DHT22;8864;51.970;4.614;2024-03-22T13:09:06;18.20;82.40
17495;DHT22;8864;51.970;4.614;2024-03-22T13:11:35;18.10;82.40
17495;DHT22;8864;51.970;4.614;2024-03-22T13:14:02;18.10;82.50
17495;DHT22;8864;51.970;4.614;2024-03-22T13:16:29;18.10;82.40
17495;DHT22;8864;51.970;4.614;2024-03-22T13:18:55;18.10;82.60
17495;DHT22;8864;51.970;4.614;2024-03-22T13:21:22;18.10;82.60
17495;DHT22;8864;51.970;4.614;2024-03-22T13:23:48;18.10;82.60
17495;DHT22;8864;51.970;4.614;2024-03-22T13:26:14;18.10;82.70
17495;DHT22;8864;51.970;4.614;2024-03-22T13:28:40;18.10;83.50
17495;DHT22;8864;51.970;4.614;2024-03-22T13:31:10;18.10;82.70
17495;DHT22;8864;51.970;4.614;2024-03-22T13:33:36;18.10;82.80
17495;DHT22;8864;51.970;4.614;2024-03-22T13:36:03;18.10;82.90
17495;DHT22;8864;51.970;4.614;2024-03-22T13:38:30;18.10;82.80
17495;DHT22;8864;51.970;4.614;2024-03-22T13:40:58;18.10;82.90
17495;DHT22;8864;51.970;4.614;2024-03-22T13:43:26;18.10;82.90
17495;DHT22;8864;51.970;4.614;2024-03-22T13:45:52;18.10;82.90
17495;DHT22;8864;51.970;4.614;2024-03-22T13:48:23;18.10;82.90
17495;DHT22;8864;51.970;4.614;2024-03-22T13:50:50;18.10;82.90
17495;DHT22;8864;51.970;4.614;2024-03-22T13:53:17;18.10;82.90
17495;DHT22;8864;51.970;4.614;2024-03-22T13:55:43;18.10;82.90
17495;DHT22;8864;51.970;4.614;2024-03-22T13:58:10;18.10;83.00
17495;DHT22;8864;51.970;4.614;2024-03-22T14:00:36;18.10;82.90
17495;DHT22;8864;51.970;4.614;2024-03-22T14:03:03;18.10;83.00
17495;DHT22;8864;51.970;4.614;2024-03-22T14:05:31;18.10;82.90
17495;DHT22;8864;51.970;4.614;2024-03-22T14:07:58;18.10;82.90
17495;DHT22;8864;51.970;4.614;2024-03-22T14:10:24;18.20;82.90
17495;DHT22;8864;51.970;4.614;2024-03-22T14:12:53;18.10;82.90
17495;DHT22;8864;51.970;4.614;2024-03-22T14:15:19;18.20;82.90
17495;DHT22;8864;51.970;4.614;2024-03-22T14:17:46;18.20;82.90
17495;DHT22;8864;51.970;4.614;2024-03-22T14:20:12;18.20;82.90
17495;DHT22;8864;51.970;4.614;2024-03-22T14:22:40;18.20;82.90
17495;DHT22;8864;51.970;4.614;2024-03-22T14:25:07;18.20;82.90
17495;DHT22;8864;51.970;4.614;2024-03-22T14:27:34;18.20;83.00
17495;DHT22;8864;51.970;4.614;2024-03-22T14:30:01;18.20;82.90
17495;DHT22;8864;51.970;4.614;2024-03-22T14:32:30;18.20;82.90
17495;DHT22;8864;51.970;4.614;2024-03-22T14:34:56;18.20;82.90
17495;DHT22;8864;51.970;4.614;2024-03-22T14:37:23;18.20;83.30
17495;DHT22;8864;51.970;4.614;2024-03-22T14:39:50;18.10;83.20
17495;DHT22;8864;51.970;4.614;2024-03-22T14:42:17;18.10;83.10
17495;DHT22;8864;51.970;4.614;2024-03-22T14:44:43;18.10;83.10
17495;DHT22;8864;51.970;4.614;2024-03-22T14:47:11;18.10;83.00
17495;DHT22;8864;51.970;4.614;2024-03-22T14:49:37;18.10;83.00
17495;DHT22;8864;51.970;4.614;2024-03-22T14:52:06;18.10;83.10
17495;DHT22;8864;51.970;4.614;2024-03-22T14:54:31;18.10;83.10
17495;DHT22;8864;51.970;4.614;2024-03-22T14:57:00;18.10;83.10
17495;DHT22;8864;51.970;4.614;2024-03-22T14:59:27;18.00;83.10
17495;DHT22;8864;51.970;4.614;2024-03-22T15:01:54;18.00;83.10
17495;DHT22;8864;51.970;4.614;2024-03-22T15:04:20;18.00;83.00
17495;DHT22;8864;51.970;4.614;2024-03-22T15:06:47;18.00;83.00
17495;DHT22;8864;51.970;4.614;2024-03-22T15:09:16;18.00;83.00
17495;DHT22;8864;51.970;4.614;2024-03-22T15:11:44;18.00;83.10
17495;DHT22;8864;51.970;4.614;2024-03-22T15:14:11;18.00;83.00
17495;DHT22;8864;51.970;4.614;2024-03-22T15:16:38;18.00;83.00
17495;DHT22;8864;51.970;4.614;2024-03-22T15:19:04;18.00;83.00
17495;DHT22;8864;51.970;4.614;2024-03-22T15:21:31;18.00;83.00
17495;DHT22;8864;51.970;4.614;2024-03-22T15:23:57;18.00;83.00
17495;DHT22;8864;51.970;4.614;2024-03-22T15:26:24;18.00;83.00
17495;DHT22;8864;51.970;4.614;2024-03-22T15:28:50;18.00;83.00
17495;DHT22;8864;51.970;4.614;2024-03-22T15:31:18;18.00;83.00
17495;DHT22;8864;51.970;4.614;2024-03-22T15:33:44;18.00;83.00
17495;DHT22;8864;51.970;4.614;2024-03-22T15:36:11;18.00;83.00
17495;DHT22;8864;51.970;4.614;2024-03-22T15:38:37;18.00;83.80
17495;DHT22;8864;51.970;4.614;2024-03-22T15:41:04;18.00;83.00
17495;DHT22;8864;51.970;4.614;2024-03-22T15:43:30;18.00;83.00